Time;durP1;ratioP1;P1;durP2;ratioP2;P2;SDS_P1;SDS_P2;PMS_P1;PMS_P2;Temp;Humidity;BMP_temperature;BMP_pressure;BME280_temperature;BME280_humidity;BME280_pressure;Samples;Min_cycle;Max_cycle;Signal;HPM_P1;HPM_P2
2024/01/03 00:00:35;;;;;;;12.00;9.00;;;;;;;4.52;65.01;93512.41;4999836;28;20124;-78
2024/01/03 00:03:00;;;;;;;13.82;9.57;;;;;;;4.60;64.96;93517.06;5015248;28;20065;-77
2024/01/03 00:05:38;;;;;;;11.48;9.27;;;;;;;4.64;64.48;93520.69;5016406;28;20136;-78
2024/01/03 00:08:05;;;;;;;14.60;9.35;;;;;;;4.61;64.90;93518.59;5016811;28;20049;-77
2024/01/03 00:10:52;;;;;;;14.52;9.95;;;;;;;4.57;64.53;93515.75;5014281;28;20083;-75
2024/01/03 00:13:30;;;;;;;11.52;8.50;;;;;;;4.63;64.66;93525.19;5016633;28;20506;-76
2024/01/03 00:16:03;;;;;;;11.55;9.50;;;;;;;4.59;64.35;93529.44;5018077;28;20457;-76
2024/01/03 00:18:35;;;;;;;14.93;8.20;;;;;;;4.52;64.62;93538.72;5002661;28;20046;-78
2024/01/03 00:21:00;;;;;;;15.52;8.88;;;;;;;4.45;64.49;93544.38;4990737;28;20056;-78
2024/01/03 00:23:46;;;;;;;11.68;9.13;;;;;;;4.47;64.76;93533.53;5011274;28;20163;-78
2024/01/03 00:26:12;;;;;;;14.73;8.25;;;;;;;4.31;64.21;93516.34;5001494;28;20045;-77
2024/01/03 00:28:39;;;;;;;14.00;9.45;;;;;;;4.27;65.33;93522.13;4990445;28;20124;-78
2024/01/03 00:31:04;;;;;;;11.55;8.80;;;;;;;4.45;65.23;93533.03;4983977;28;20585;-78
2024/01/03 00:33:30;;;;;;;12.60;8.93;;;;;;;4.39;64.88;93505.97;4976925;28;20030;-78
2024/01/03 00:35:56;;;;;;;13.32;10.10;;;;;;;4.11;65.29;93473.34;4977917;28;20863;-78
2024/01/03 00:38:22;;;;;;;15.43;9.40;;;;;;;4.56;64.83;93518.66;4974666;28;20046;-77
2024/01/03 00:40:54;;;;;;;11.63;8.65;;;;;;;4.53;64.66;93535.03;4981117;28;20517;-77
2024/01/03 00:43:20;;;;;;;13.48;10.05;;;;;;;4.42;65.30;93513.31;4979847;28;20835;-78
2024/01/03 00:45:47;;;;;;;32.28;17.95;;;;;;;4.13;65.82;93487.03;4978897;28;20033;-77
2024/01/03 00:48:13;;;;;;;16.75;11.57;;;;;;;4.46;66.27;93524.84;4986674;28;20088;-78
2024/01/03 00:50:39;;;;;;;17.98;10.35;;;;;;;4.34;66.53;93510.53;4976897;28;20050;-77
2024/01/03 00:53:05;;;;;;;17.95;11.70;;;;;;;4.30;66.60;93517.41;4977578;28;20515;-77
2024/01/03 00:55:30;;;;;;;16.52;11.00;;;;;;;4.32;66.68;93518.69;4975760;28;20048;-77
2024/01/03 00:57:56;;;;;;;14.63;10.02;;;;;;;4.09;66.98;93478.13;4978700;28;20029;-78
2024/01/03 01:00:22;;;;;;;18.30;10.68;;;;;;;4.14;67.24;93500.97;4979152;28;20775;-79
2024/01/03 01:02:47;;;;;;;19.92;13.43;;;;;;;4.45;66.13;93531.19;4986767;28;20232;-78
2024/01/03 01:05:13;;;;;;;17.55;12.27;;;;;;;4.44;66.87;93534.88;4978989;28;20053;-77
2024/01/03 01:07:39;;;;;;;19.02;13.23;;;;;;;4.42;66.91;93528.31;4977180;28;20042;-78
2024/01/03 01:10:05;;;;;;;28.60;18.48;;;;;;;4.05;66.87;93468.44;4977302;28;20057;-77
2024/01/03 01:12:30;;;;;;;20.02;13.27;;;;;;;4.43;66.17;93517.50;4968652;28;20530;-76
2024/01/03 01:14:58;;;;;;;22.65;14.90;;;;;;;4.32;67.03;93497.63;4982543;28;20045;-76
2024/01/03 01:17:25;;;;;;;26.05;17.20;;;;;;;4.27;66.12;93474.75;4996726;28;20065;-75
2024/01/03 01:19:51;;;;;;;26.48;19.95;;;;;;;4.20;66.96;93484.84;4993947;28;20030;-76
2024/01/03 01:22:16;;;;;;;19.88;14.27;;;;;;;4.41;66.97;93522.25;4978886;28;20036;-76
2024/01/03 01:24:41;;;;;;;31.67;19.80;;;;;;;4.42;66.95;93507.25;4981093;28;20030;-76
2024/01/03 01:27:07;;;;;;;17.77;14.23;;;;;;;4.35;67.10;93514.72;4982422;28;20035;-76
2024/01/03 01:29:32;;;;;;;19.77;12.48;;;;;;;4.14;67.71;93485.19;4984631;28;20053;-77
2024/01/03 01:31:58;;;;;;;17.25;12.85;;;;;;;4.19;66.52;93493.03;5001621;28;20490;-76
2024/01/03 01:34:23;;;;;;;16.52;11.18;;;;;;;4.00;67.45;93457.97;5014951;28;20503;-77
2024/01/03 01:36:48;;;;;;;18.60;12.05;;;;;;;3.95;69.51;93485.13;5000091;28;20690;-76
2024/01/03 01:39:14;;;;;;;30.85;16.60;;;;;;;4.18;67.30;93500.13;5002804;28;20055;-79
2024/01/03 01:41:39;;;;;;;28.55;15.00;;;;;;;4.03;68.00;93462.66;5031965;28;20033;-78
2024/01/03 01:44:05;;;;;;;51.53;22.75;;;;;;;3.98;68.91;93492.44;5000068;28;20049;-78
2024/01/03 01:46:32;;;;;;;45.13;24.10;;;;;;;4.07;68.33;93474.19;5014641;28;20041;-76
2024/01/03 01:48:58;;;;;;;51.97;25.20;;;;;;;4.11;68.75;93502.31;5020326;28;20025;-76
2024/01/03 01:51:23;;;;;;;53.65;25.30;;;;;;;3.74;69.11;93476.66;4998657;28;20060;-76
2024/01/03 01:53:49;;;;;;;67.63;31.70;;;;;;;4.02;68.79;93508.47;5012042;28;20744;-77
2024/01/03 01:56:18;;;;;;;132.25;50.58;;;;;;;4.13;68.96;93502.03;5000795;28;20596;-76
2024/01/03 01:58:44;;;;;;;31.23;18.63;;;;;;;4.10;69.50;93494.69;5016646;28;20080;-77
2024/01/03 02:01:09;;;;;;;26.42;18.60;;;;;;;3.85;69.87;93453.66;4995964;28;20032;-77
2024/01/03 02:03:37;;;;;;;21.70;16.92;;;;;;;4.05;69.67;93471.06;5013410;28;20568;-76
2024/01/03 02:06:06;;;;;;;24.40;15.98;;;;;;;3.69;70.44;93462.75;5013929;28;20059;-77
2024/01/03 02:08:33;;;;;;;24.30;17.60;;;;;;;4.00;70.16;93473.75;5001829;28;20509;-77
2024/01/03 02:10:58;;;;;;;27.83;16.05;;;;;;;3.87;69.63;93469.94;5015437;28;20056;-76
2024/01/03 02:13:24;;;;;;;26.23;16.00;;;;;;;4.07;68.46;93456.56;5013213;28;20180;-77
2024/01/03 02:15:49;;;;;;;22.38;17.13;;;;;;;4.19;67.00;93464.84;5012742;28;20471;-77
2024/01/03 02:18:16;;;;;;;26.55;15.82;;;;;;;4.23;67.34;93510.59;5011130;28;20069;-76
2024/01/03 02:20:43;;;;;;;29.50;18.50;;;;;;;4.37;66.54;93502.03;5014767;28;20457;-76
2024/01/03 02:23:08;;;;;;;40.22;20.48;;;;;;;4.30;67.25;93499.78;5015609;28;20111;-76
2024/01/03 02:25:34;;;;;;;59.83;25.55;;;;;;;4.44;65.84;93499.88;5017710;28;20032;-76
2024/01/03 02:27:59;;;;;;;47.33;21.77;;;;;;;4.41;65.78;93495.16;4996469;28;20028;-76
2024/01/03 02:30:24;;;;;;;27.63;16.15;;;;;;;4.44;66.09;93505.13;5014203;28;20634;-77
2024/01/03 02:32:50;;;;;;;29.00;17.55;;;;;;;4.36;66.45;93471.50;5002011;28;20115;-77
2024/01/03 02:35:16;;;;;;;24.58;15.85;;;;;;;4.36;66.51;93492.56;4996884;28;20071;-77
2024/01/03 02:37:42;;;;;;;21.20;13.90;;;;;;;4.37;66.21;93478.34;5012007;28;20136;-76
2024/01/03 02:40:08;;;;;;;25.55;14.25;;;;;;;4.50;66.33;93469.78;5003077;28;20026;-77
2024/01/03 02:42:33;;;;;;;18.80;14.48;;;;;;;4.56;65.74;93474.69;5002162;28;20146;-77
2024/01/03 02:44:58;;;;;;;22.23;14.02;;;;;;;4.59;65.63;93474.13;5014675;28;20429;-76
2024/01/03 02:47:24;;;;;;;19.50;14.35;;;;;;;4.53;64.91;93462.09;5016023;28;20465;-76
2024/01/03 02:49:49;;;;;;;20.90;14.35;;;;;;;4.42;65.47;93428.25;5008560;28;20091;-77
2024/01/03 02:52:15;;;;;;;21.48;15.27;;;;;;;4.52;65.23;93434.19;5014284;28;20128;-77
2024/01/03 02:54:40;;;;;;;19.90;14.18;;;;;;;4.47;66.47;93444.78;5017679;28;20477;-76
2024/01/03 02:57:05;;;;;;;20.80;14.73;;;;;;;4.46;65.84;93424.00;5001320;28;20092;-77
2024/01/03 02:59:33;;;;;;;26.92;17.17;;;;;;;3.19;71.93;93425.34;5000621;28;20055;-76
2024/01/03 03:01:58;;;;;;;24.08;16.67;;;;;;;3.73;72.36;93447.97;5017669;28;20037;-75
2024/01/03 03:04:24;;;;;;;23.40;17.15;;;;;;;3.45;72.18;93417.25;5013198;28;20037;-76
2024/01/03 03:06:49;;;;;;;26.05;17.52;;;;;;;3.48;74.09;93440.38;5012399;28;20071;-76
2024/01/03 03:09:14;;;;;;;25.13;17.10;;;;;;;3.86;71.75;93442.06;4997257;28;20070;-76
2024/01/03 03:11:40;;;;;;;24.33;16.55;;;;;;;4.07;69.61;93432.09;5014161;28;20120;-75
2024/01/03 03:14:07;;;;;;;24.10;16.02;;;;;;;4.08;70.15;93457.34;5014949;28;20514;-77
2024/01/03 03:16:33;;;;;;;24.15;16.15;;;;;;;4.15;70.54;93449.91;5012837;28;20049;-78
2024/01/03 03:18:58;;;;;;;23.42;17.02;;;;;;;3.89;70.55;93440.72;5015180;28;20063;-76
2024/01/03 03:21:23;;;;;;;22.67;17.05;;;;;;;4.22;70.39;93456.38;4998616;28;20500;-75
2024/01/03 03:23:49;;;;;;;20.27;15.63;;;;;;;4.40;69.17;93457.53;5008642;28;20068;-76
2024/01/03 03:26:14;;;;;;;23.67;16.45;;;;;;;4.27;69.54;93443.16;5012360;28;20069;-76
2024/01/03 03:28:40;;;;;;;25.05;16.35;;;;;;;4.43;69.41;93445.63;4996496;28;20041;-75
2024/01/03 03:31:06;;;;;;;22.38;14.27;;;;;;;4.60;68.59;93440.69;4978894;28;20282;-76
2024/01/03 03:33:32;;;;;;;20.20;14.48;;;;;;;4.73;67.88;93418.88;5013811;28;20052;-76
2024/01/03 03:35:57;;;;;;;19.80;14.13;;;;;;;4.71;66.73;93402.56;5014405;28;20041;-76
2024/01/03 03:38:23;;;;;;;21.65;15.23;;;;;;;4.82;67.01;93419.81;5015393;28;20040;-75
2024/01/03 03:40:48;;;;;;;19.52;13.80;;;;;;;4.86;67.10;93430.53;5009260;28;20129;-76
2024/01/03 03:43:14;;;;;;;17.60;13.90;;;;;;;4.88;66.93;93416.03;5016107;28;20048;-76
2024/01/03 03:45:39;;;;;;;24.20;14.57;;;;;;;4.49;68.58;93397.09;4997675;28;20466;-76
2024/01/03 03:48:05;;;;;;;23.33;15.55;;;;;;;4.54;68.31;93403.09;5011760;28;20439;-76
2024/01/03 03:50:30;;;;;;;24.05;15.10;;;;;;;4.17;69.96;93398.53;5015446;28;20280;-76
2024/01/03 03:52:56;;;;;;;18.33;13.93;;;;;;;4.38;68.88;93371.97;5011919;28;20050;-76
2024/01/03 03:55:21;;;;;;;19.45;13.57;;;;;;;4.61;67.63;93389.53;5012522;28;20037;-76
2024/01/03 03:57:47;;;;;;;21.58;13.15;;;;;;;4.56;67.88;93373.81;5013369;28;20375;-77
2024/01/03 04:00:13;;;;;;;18.98;12.23;;;;;;;4.62;68.62;93404.28;5017380;28;20777;-76
2024/01/03 04:02:38;;;;;;;21.48;14.82;;;;;;;3.53;72.19;93377.19;5013852;28;20044;-76
2024/01/03 04:05:04;;;;;;;17.13;13.57;;;;;;;4.17;71.92;93421.44;5013145;28;20533;-77
2024/01/03 04:07:31;;;;;;;18.25;14.05;;;;;;;3.97;71.31;93401.41;5014635;28;20494;-76
2024/01/03 04:09:57;;;;;;;20.88;13.35;;;;;;;4.13;71.20;93394.91;5015571;28;20021;-76
2024/01/03 04:12:23;;;;;;;18.80;14.35;;;;;;;4.11;69.85;93378.59;4991536;28;20048;-76
2024/01/03 04:14:48;;;;;;;27.35;17.77;;;;;;;4.46;69.01;93408.19;4995850;28;20540;-77
2024/01/03 04:17:13;;;;;;;48.28;22.48;;;;;;;4.15;69.52;93405.94;5012525;28;20057;-76
2024/01/03 04:19:39;;;;;;;81.82;27.55;;;;;;;4.34;68.95;93413.91;4999438;28;20123;-76
2024/01/03 04:22:05;;;;;;;42.65;18.75;;;;;;;4.07;70.42;93400.50;5016569;28;20033;-76
2024/01/03 04:24:31;;;;;;;21.95;13.73;;;;;;;4.39;70.18;93424.34;5012514;28;20787;-75
2024/01/03 04:26:56;;;;;;;17.13;12.65;;;;;;;4.55;69.54;93417.03;5007722;28;20560;-76
2024/01/03 04:29:21;;;;;;;16.15;12.10;;;;;;;4.54;69.17;93404.94;5013344;28;20402;-77
2024/01/03 04:31:47;;;;;;;16.08;12.05;;;;;;;4.82;68.38;93427.69;5008477;28;20045;-76
2024/01/03 04:34:14;;;;;;;20.92;13.82;;;;;;;4.42;69.45;93426.41;4998757;28;20056;-76
2024/01/03 04:36:39;;;;;;;19.40;13.35;;;;;;;3.62;72.70;93428.13;5014552;28;20071;-77
2024/01/03 04:39:04;;;;;;;19.10;13.82;;;;;;;3.05;75.88;93432.31;5018090;28;20490;-76
2024/01/03 04:41:30;;;;;;;19.73;13.77;;;;;;;3.49;75.42;93431.41;5006552;28;20052;-76
2024/01/03 04:43:56;;;;;;;16.52;12.57;;;;;;;4.09;72.85;93441.28;5020744;28;20490;-77
2024/01/03 04:46:21;;;;;;;17.63;13.73;;;;;;;4.31;70.70;93445.28;5009156;28;20049;-77
2024/01/03 04:48:47;;;;;;;20.38;13.57;;;;;;;4.18;69.94;93412.47;5007637;28;20378;-76
2024/01/03 04:51:12;;;;;;;32.47;16.17;;;;;;;4.45;69.81;93448.78;5006274;28;20521;-76
2024/01/03 04:53:37;;;;;;;26.35;16.00;;;;;;;4.60;69.33;93440.69;5000787;28;20040;-76
2024/01/03 04:56:03;;;;;;;21.13;14.18;;;;;;;4.74;68.45;93428.38;5014508;28;20039;-76
2024/01/03 04:58:29;;;;;;;29.15;16.95;;;;;;;4.73;66.93;93412.84;5016895;28;21367;-76
2024/01/03 05:00:54;;;;;;;30.95;16.02;;;;;;;4.06;70.51;93426.03;5015037;28;20506;-76
2024/01/03 05:03:20;;;;;;;25.20;14.77;;;;;;;4.27;69.83;93413.41;5010584;28;20321;-77
2024/01/03 05:05:46;;;;;;;18.60;12.77;;;;;;;4.36;69.14;93397.78;5019718;28;20043;-76
2024/01/03 05:08:11;;;;;;;17.65;13.70;;;;;;;4.32;69.33;93420.50;4998866;28;20041;-77
2024/01/03 05:10:37;;;;;;;21.85;14.30;;;;;;;4.25;68.80;93407.66;5010157;28;20053;-77
2024/01/03 05:13:02;;;;;;;18.85;14.05;;;;;;;3.67;72.17;93396.53;5001400;28;20065;-77
2024/01/03 05:15:28;;;;;;;17.90;12.63;;;;;;;3.86;70.68;93391.31;5003199;28;20037;-76
2024/01/03 05:17:53;;;;;;;19.25;13.90;;;;;;;3.85;72.72;93414.19;5005224;28;20091;-76
2024/01/03 05:20:19;;;;;;;16.65;12.38;;;;;;;4.19;70.19;93398.25;5017831;28;20045;-77
2024/01/03 05:22:44;;;;;;;18.67;13.05;;;;;;;4.44;69.26;93415.59;4996592;28;20124;-76
2024/01/03 05:25:10;;;;;;;17.40;12.27;;;;;;;4.34;69.87;93397.31;5001489;28;20044;-76
2024/01/03 05:27:35;;;;;;;17.70;12.98;;;;;;;4.54;68.30;93400.47;5000512;28;20035;-76
2024/01/03 05:30:01;;;;;;;23.15;13.23;;;;;;;3.77;69.63;93357.72;5004680;28;20049;-78
2024/01/03 05:32:26;;;;;;;26.02;14.75;;;;;;;4.30;70.98;93425.28;5017081;28;20466;-76
2024/01/03 05:34:51;;;;;;;22.65;13.57;;;;;;;4.53;69.50;93432.34;5005064;28;20210;-76
2024/01/03 05:37:18;;;;;;;16.02;11.73;;;;;;;4.52;69.00;93404.44;4993910;28;20757;-76
2024/01/03 05:39:44;;;;;;;17.25;11.77;;;;;;;4.62;68.32;93420.09;5015073;28;20025;-77
2024/01/03 05:42:10;;;;;;;19.65;12.73;;;;;;;4.49;68.06;93391.84;5013355;28;20041;-77
2024/01/03 05:44:36;;;;;;;20.05;13.32;;;;;;;4.78;67.18;93423.28;4999296;28;21023;-76
2024/01/03 05:47:01;;;;;;;90.10;38.75;;;;;;;4.83;67.27;93425.84;5016310;28;21300;-78
2024/01/03 05:49:27;;;;;;;56.85;29.10;;;;;;;4.94;66.87;93420.13;5018360;28;20044;-76
2024/01/03 05:51:52;;;;;;;45.53;26.58;;;;;;;4.51;68.53;93423.91;5006708;28;20071;-76
2024/01/03 05:54:18;;;;;;;27.30;16.65;;;;;;;4.54;68.06;93407.56;5007733;28;20048;-76
2024/01/03 05:56:44;;;;;;;30.98;16.42;;;;;;;4.12;70.30;93408.34;5016068;28;20520;-75
2024/01/03 05:59:09;;;;;;;23.38;15.18;;;;;;;4.51;69.58;93431.81;5008665;28;20037;-77
2024/01/03 06:01:34;;;;;;;26.50;15.70;;;;;;;4.58;68.41;93405.94;4994000;28;20462;-76
2024/01/03 06:04:00;;;;;;;27.15;15.90;;;;;;;4.56;67.38;93394.88;5001584;28;20029;-76
2024/01/03 06:06:25;;;;;;;21.50;14.05;;;;;;;4.51;68.54;93435.25;5015387;28;22416;-76
2024/01/03 06:08:51;;;;;;;23.50;14.68;;;;;;;4.08;68.72;93381.81;5015047;28;20525;-76
2024/01/03 06:11:16;;;;;;;20.65;14.88;;;;;;;4.61;67.96;93431.69;4993788;28;20395;-77
2024/01/03 06:13:42;;;;;;;33.15;19.05;;;;;;;3.35;72.27;93426.81;5012363;28;20041;-76
2024/01/03 06:16:09;;;;;;;49.53;25.98;;;;;;;2.86;75.19;93405.16;5010999;28;20041;-76
2024/01/03 06:18:35;;;;;;;49.92;27.70;;;;;;;2.79;74.66;93413.31;4993385;28;20071;-75
2024/01/03 06:21:00;;;;;;;50.42;27.73;;;;;;;2.25;76.57;93429.19;5011941;28;20041;-75
2024/01/03 06:23:25;;;;;;;45.55;28.35;;;;;;;2.15;77.44;93434.47;5016043;28;20056;-75
2024/01/03 06:25:52;;;;;;;46.58;28.25;;;;;;;2.55;75.48;93432.69;5014766;28;20844;-76
2024/01/03 06:28:17;;;;;;;42.65;26.27;;;;;;;2.09;77.57;93425.03;4993451;28;20135;-74
2024/01/03 06:30:43;;;;;;;36.92;23.27;;;;;;;2.68;75.63;93438.09;5012997;28;20484;-75
2024/01/03 06:33:08;;;;;;;40.58;26.63;;;;;;;2.22;75.99;93418.41;5001916;28;20041;-79
2024/01/03 06:35:34;;;;;;;38.33;25.42;;;;;;;2.62;75.53;93441.03;5015670;28;20088;-75
2024/01/03 06:37:59;;;;;;;43.42;23.38;;;;;;;2.91;73.52;93416.41;4993849;28;20101;-78
2024/01/03 06:40:24;;;;;;;31.08;20.98;;;;;;;3.09;74.00;93417.56;5014507;28;20044;-77
2024/01/03 06:42:50;;;;;;;26.17;18.20;;;;;;;3.09;74.76;93409.69;5013406;28;20770;-77
2024/01/03 06:45:15;;;;;;;28.25;19.60;;;;;;;3.27;73.14;93385.34;5013099;28;20045;-77
2024/01/03 06:47:42;;;;;;;24.70;17.83;;;;;;;3.68;73.28;93419.09;5011233;28;20037;-77
2024/01/03 06:50:08;;;;;;;22.40;16.17;;;;;;;3.18;75.14;93405.41;4993135;28;20044;-77
2024/01/03 06:52:34;;;;;;;19.30;13.55;;;;;;;3.63;74.52;93408.63;5012835;28;20037;-77
2024/01/03 06:54:59;;;;;;;20.25;13.35;;;;;;;3.56;74.45;93406.34;4999156;28;20082;-78
2024/01/03 06:57:24;;;;;;;21.17;14.75;;;;;;;3.45;75.80;93412.00;5005646;28;20032;-78
2024/01/03 06:59:50;;;;;;;17.20;12.88;;;;;;;3.71;74.55;93394.91;5017197;28;20518;-79
2024/01/03 07:02:16;;;;;;;19.42;13.88;;;;;;;4.10;74.21;93421.00;4987777;28;20079;-77
2024/01/03 07:04:42;;;;;;;19.25;13.48;;;;;;;3.40;73.78;93362.88;5001470;28;20482;-78
2024/01/03 07:07:07;;;;;;;20.15;16.95;;;;;;;3.59;74.64;93410.25;5012517;28;20639;-77
2024/01/03 07:09:33;;;;;;;22.10;16.48;;;;;;;3.91;73.80;93418.34;5013676;28;20510;-75
2024/01/03 07:11:58;;;;;;;24.92;16.27;;;;;;;4.09;72.37;93409.69;5010279;28;20775;-76
2024/01/03 07:14:24;;;;;;;24.52;17.70;;;;;;;4.19;71.90;93416.69;4999807;28;20028;-77
2024/01/03 07:16:49;;;;;;;25.25;16.60;;;;;;;3.49;74.39;93410.38;5027058;28;20033;-76
2024/01/03 07:19:14;;;;;;;25.30;15.80;;;;;;;4.05;73.58;93427.13;5025432;28;20403;-76
2024/01/03 07:21:40;;;;;;;24.40;15.40;;;;;;;4.29;71.81;93435.00;4992990;28;20302;-76
2024/01/03 07:24:05;;;;;;;29.52;15.77;;;;;;;4.23;72.18;93413.22;4994310;28;20044;-77
2024/01/03 07:26:31;;;;;;;24.20;14.15;;;;;;;4.35;71.73;93406.78;4997292;28;20044;-77
2024/01/03 07:28:56;;;;;;;22.25;15.02;;;;;;;3.62;75.04;93446.53;4993424;28;20805;-77
2024/01/03 07:31:22;;;;;;;20.58;14.73;;;;;;;4.17;74.40;93431.97;4992057;28;20201;-76
2024/01/03 07:33:48;;;;;;;23.35;15.75;;;;;;;4.01;74.09;93434.03;4984882;28;20167;-76
2024/01/03 07:36:13;;;;;;;21.10;13.60;;;;;;;4.42;73.41;93428.25;4992818;28;20041;-76
2024/01/03 07:38:39;;;;;;;17.95;12.82;;;;;;;4.34;72.60;93426.28;5014722;28;20049;-76
2024/01/03 07:41:04;;;;;;;16.92;13.45;;;;;;;3.93;74.71;93415.41;4992511;28;20044;-76
2024/01/03 07:43:30;;;;;;;18.30;12.52;;;;;;;4.31;73.62;93417.06;5006695;28;20056;-75
2024/01/03 07:45:58;;;;;;;18.10;12.77;;;;;;;4.74;72.08;93412.56;5008904;28;20506;-76
2024/01/03 07:48:24;;;;;;;15.35;11.80;;;;;;;4.92;71.65;93440.72;5011871;28;20041;-77
2024/01/03 07:50:50;;;;;;;18.30;12.75;;;;;;;4.76;71.18;93428.06;5008933;28;20048;-76
2024/01/03 07:53:16;;;;;;;25.48;17.00;;;;;;;4.87;70.71;93429.47;5011423;28;20045;-76
2024/01/03 07:55:41;;;;;;;16.30;12.38;;;;;;;4.33;71.28;93391.25;5008319;28;20049;-76
2024/01/03 07:58:06;;;;;;;17.08;13.25;;;;;;;4.55;71.91;93406.50;5006537;28;20032;-77
2024/01/03 08:00:32;;;;;;;18.77;13.25;;;;;;;4.05;73.15;93416.59;5010171;28;20119;-77
2024/01/03 08:02:57;;;;;;;23.23;15.38;;;;;;;4.51;72.75;93431.81;5006900;28;20037;-76
2024/01/03 08:05:24;;;;;;;22.90;12.80;;;;;;;3.94;73.21;93401.19;4997877;28;20037;-77
2024/01/03 08:07:49;;;;;;;33.53;18.60;;;;;;;4.26;73.08;93419.75;4982657;28;20026;-75
2024/01/03 08:10:15;;;;;;;21.92;16.85;;;;;;;4.04;73.34;93396.59;4993559;28;20038;-76
2024/01/03 08:12:41;;;;;;;21.77;14.55;;;;;;;3.86;74.06;93354.47;5013449;28;20573;-76
2024/01/03 08:15:07;;;;;;;22.50;15.20;;;;;;;4.41;73.48;93403.00;4995077;28;20745;-76
2024/01/03 08:17:32;;;;;;;23.27;15.57;;;;;;;3.64;76.28;93410.22;5012678;28;20037;-77
2024/01/03 08:19:57;;;;;;;26.15;16.23;;;;;;;3.93;75.77;93389.88;4995263;28;20040;-76
2024/01/03 08:22:23;;;;;;;21.00;15.15;;;;;;;3.98;76.19;93405.63;5013524;28;20457;-76
2024/01/03 08:24:49;;;;;;;22.77;15.32;;;;;;;3.57;77.35;93412.41;4989949;28;20103;-77
2024/01/03 08:27:14;;;;;;;22.02;14.98;;;;;;;3.93;76.64;93392.53;4999264;28;20406;-77
2024/01/03 08:29:40;;;;;;;29.58;17.13;;;;;;;4.47;75.46;93409.75;5009931;28;20049;-77
2024/01/03 08:32:05;;;;;;;28.50;17.70;;;;;;;4.15;75.87;93384.91;5001456;28;20038;-77
2024/01/03 08:34:31;;;;;;;23.67;16.42;;;;;;;4.79;75.12;93411.69;5014378;28;20073;-77
2024/01/03 08:36:56;;;;;;;26.58;15.93;;;;;;;4.93;73.70;93399.34;5016697;28;20480;-75
2024/01/03 08:39:22;;;;;;;25.52;18.10;;;;;;;5.18;72.50;93401.59;5002864;28;20409;-76
2024/01/03 08:41:48;;;;;;;18.33;13.18;;;;;;;4.54;73.27;93355.69;5015746;28;20685;-77
2024/01/03 08:44:13;;;;;;;24.65;14.07;;;;;;;4.93;73.21;93384.34;5017697;28;20041;-77
2024/01/03 08:46:43;;;;;;;27.75;15.88;;;;;;;4.33;72.88;93330.72;5012336;28;21037;-76
2024/01/03 08:49:08;;;;;;;25.27;17.25;;;;;;;4.84;74.27;93387.91;5004581;28;20572;-76
2024/01/03 08:51:35;;;;;;;26.75;16.42;;;;;;;4.85;72.80;93344.66;5010608;28;20048;-76
2024/01/03 08:54:00;;;;;;;26.50;15.65;;;;;;;4.30;74.96;93367.38;4995699;28;20034;-77
2024/01/03 08:56:26;;;;;;;28.73;18.55;;;;;;;4.63;75.54;93393.47;5017456;28;20040;-75
2024/01/03 08:58:51;;;;;;;32.28;20.75;;;;;;;3.83;76.26;93371.59;5013366;28;20137;-76
2024/01/03 09:01:18;;;;;;;30.85;20.55;;;;;;;4.51;75.50;93387.06;5016474;28;20935;-76
2024/01/03 09:03:44;;;;;;;27.10;18.35;;;;;;;4.39;75.02;93365.66;5008364;28;20176;-77
2024/01/03 09:06:12;;;;;;;27.60;17.52;;;;;;;4.56;74.63;93363.28;4994419;28;20486;-75
2024/01/03 09:08:37;;;;;;;27.52;17.67;;;;;;;4.11;74.46;93370.72;5012402;28;20045;-77
2024/01/03 09:11:11;;;;;;;25.42;18.23;;;;;;;4.51;74.43;93363.34;5010766;28;20410;-78
2024/01/03 09:13:38;;;;;;;33.25;18.17;;;;;;;4.35;75.58;93365.44;5000137;28;20048;-76
2024/01/03 09:16:04;;;;;;;27.38;18.13;;;;;;;4.36;74.95;93350.41;5008197;28;20734;-77
2024/01/03 09:18:29;;;;;;;28.02;19.58;;;;;;;3.93;76.56;93349.66;5002690;28;20026;-78
2024/01/03 09:20:55;;;;;;;30.67;20.40;;;;;;;4.08;77.26;93360.75;5013780;28;20102;-76
2024/01/03 09:23:20;;;;;;;33.60;21.08;;;;;;;3.98;77.03;93347.72;5011868;28;20032;-77
2024/01/03 09:25:46;;;;;;;27.02;18.38;;;;;;;3.75;77.40;93335.41;5013771;28;20041;-76
2024/01/03 09:28:11;;;;;;;31.48;19.52;;;;;;;3.81;76.39;93329.81;5000994;28;20063;-75
2024/01/03 09:30:37;;;;;;;30.40;18.90;;;;;;;3.88;76.64;93353.13;5016067;28;20549;-76
2024/01/03 09:33:02;;;;;;;27.25;18.60;;;;;;;3.27;78.59;93356.44;5011744;28;20502;-75
2024/01/03 09:35:28;;;;;;;29.33;21.75;;;;;;;3.41;79.14;93359.19;5010271;28;20353;-76
2024/01/03 09:37:53;;;;;;;36.75;21.15;;;;;;;3.23;79.18;93354.66;4996160;28;20655;-75
2024/01/03 09:40:19;;;;;;;33.30;21.63;;;;;;;3.68;78.46;93337.56;4997504;28;20114;-75
2024/01/03 09:42:45;;;;;;;32.00;22.38;;;;;;;3.27;79.60;93351.19;4997955;28;20175;-75
2024/01/03 09:45:11;;;;;;;43.30;24.65;;;;;;;3.21;79.15;93362.81;4973954;28;20045;-75
2024/01/03 09:47:36;;;;;;;30.90;21.73;;;;;;;3.58;79.31;93340.31;5008951;28;20541;-76
2024/01/03 09:50:02;;;;;;;29.85;20.67;;;;;;;4.19;77.72;93362.19;4994284;28;20041;-76
2024/01/03 09:52:27;;;;;;;35.42;20.52;;;;;;;3.87;77.46;93350.78;5015951;28;24130;-75
2024/01/03 09:54:54;;;;;;;28.98;20.25;;;;;;;3.55;78.84;93315.38;5016140;28;20036;-76
2024/01/03 09:57:21;;;;;;;29.95;19.48;;;;;;;3.74;79.18;93339.88;5009920;28;20113;-75
2024/01/03 09:59:46;;;;;;;29.05;18.58;;;;;;;3.70;77.91;93291.53;5001521;28;20430;-76
2024/01/03 10:02:13;;;;;;;27.13;17.83;;;;;;;3.81;77.29;93326.38;5015749;28;20045;-75
2024/01/03 10:04:44;;;;;;;29.38;17.05;;;;;;;3.72;76.88;93334.09;5014114;28;20047;-76
2024/01/03 10:07:09;;;;;;;24.40;18.33;;;;;;;3.58;78.96;93345.59;5018689;28;20536;-76
2024/01/03 10:09:45;;;;;;;30.05;19.92;;;;;;;3.47;79.48;93344.16;5020145;28;20025;-77
2024/01/03 10:12:16;;;;;;;33.45;22.15;;;;;;;3.61;79.67;93345.03;5014288;28;20487;-77
2024/01/03 10:14:42;;;;;;;33.45;21.75;;;;;;;3.27;81.13;93329.38;5011048;28;20103;-75
2024/01/03 10:17:08;;;;;;;34.80;24.02;;;;;;;3.70;79.06;93311.78;5015169;28;20057;-76
2024/01/03 10:19:33;;;;;;;24.02;10.82;;;;;;;3.33;77.98;93315.88;4991222;28;20037;-76
2024/01/03 10:22:01;;;;;;;27.77;17.00;;;;;;;3.69;79.32;93310.22;4992408;28;20033;-75
2024/01/03 10:24:28;;;;;;;23.27;14.10;;;;;;;3.08;80.00;93283.88;5015935;28;20025;-75
2024/01/03 10:26:54;;;;;;;23.73;14.23;;;;;;;3.26;80.97;93281.28;5004141;28;20124;-76
2024/01/03 10:29:21;;;;;;;23.42;12.55;;;;;;;3.71;80.37;93308.09;4996190;28;20056;-77
2024/01/03 10:31:47;;;;;;;18.52;13.07;;;;;;;3.58;80.01;93266.69;4986738;28;20165;-75
2024/01/03 10:34:17;;;;;;;22.95;13.75;;;;;;;3.84;79.03;93291.63;4987548;28;20119;-76
2024/01/03 10:36:43;;;;;;;20.20;13.80;;;;;;;3.82;79.38;93296.38;5006655;28;20037;-76
2024/01/03 10:39:14;;;;;;;23.15;14.68;;;;;;;3.33;80.94;93305.38;5008461;28;20296;-75
2024/01/03 10:41:41;;;;;;;27.20;17.58;;;;;;;3.08;82.92;93268.88;5007116;28;20127;-75
2024/01/03 10:44:09;;;;;;;30.40;20.88;;;;;;;3.36;83.23;93264.63;5007176;28;20571;-75
2024/01/03 10:46:35;;;;;;;28.33;19.00;;;;;;;3.12;83.26;93258.59;5001388;28;20117;-77
2024/01/03 10:49:02;;;;;;;26.60;16.52;;;;;;;3.68;81.07;93261.31;4996366;28;20425;-75
2024/01/03 10:51:32;;;;;;;30.60;18.90;;;;;;;3.59;81.36;93279.56;5004262;28;20331;-74
2024/01/03 10:53:59;;;;;;;29.80;19.50;;;;;;;3.76;81.88;93274.63;4997473;28;20716;-75
2024/01/03 10:56:25;;;;;;;30.27;22.58;;;;;;;3.15;83.00;93263.28;4995712;28;20461;-77
2024/01/03 10:58:52;;;;;;;41.13;25.17;;;;;;;2.93;83.85;93266.41;5009745;28;20045;-75
2024/01/03 11:01:23;;;;;;;35.67;25.85;;;;;;;2.92;84.22;93235.94;5008103;28;20558;-76
2024/01/03 11:04:09;;;;;;;39.80;25.05;;;;;;;3.25;84.59;93252.66;4991367;28;20021;-75
2024/01/03 11:06:56;;;;;;;35.50;22.17;;;;;;;3.53;83.52;93251.00;5008335;28;20068;-75
2024/01/03 11:09:25;;;;;;;30.58;20.70;;;;;;;3.75;83.03;93259.13;5004309;28;20044;-76
2024/01/03 11:12:05;;;;;;;27.98;18.35;;;;;;;4.26;81.59;93262.59;4995898;28;20892;-76
2024/01/03 11:14:31;;;;;;;26.33;20.00;;;;;;;4.47;80.37;93272.84;4998648;28;20083;-76
2024/01/03 11:16:57;;;;;;;27.00;19.73;;;;;;;4.15;80.07;93258.56;5004822;28;20131;-76
2024/01/03 11:19:28;;;;;;;25.55;18.35;;;;;;;4.38;79.48;93238.50;4990384;28;20045;-76
2024/01/03 11:21:54;;;;;;;23.05;17.17;;;;;;;4.62;78.43;93254.16;4969523;28;20160;-75